sensor_id;sensor_type;location;lat;lon;timestamp;pressure;altitude;pressure_sealevel;temperature;humidity
9717;BME280;4897;43.570;27.832;2022-11-20T00:01:29;98654.13;;;13.89;100.00
9717;BME280;4897;43.570;27.832;2022-11-20T00:03:57;98704.63;;;14.19;100.00
9717;BME280;4897;43.570;27.832;2022-11-20T00:06:27;98716.53;;;14.17;100.00
9717;BME280;4897;43.570;27.832;2022-11-20T00:08:54;98642.13;;;13.68;100.00
9717;BME280;4897;43.570;27.832;2022-11-20T00:11:23;98703.75;;;14.11;100.00
9717;BME280;4897;43.570;27.832;2022-11-20T00:13:52;98712.66;;;14.11;100.00
9717;BME280;4897;43.570;27.832;2022-11-20T00:16:21;98701.41;;;14.08;100.00
9717;BME280;4897;43.570;27.832;2022-11-20T00:18:49;98695.34;;;14.06;100.00
9717;BME280;4897;43.570;27.832;2022-11-20T00:21:17;98690.66;;;14.08;100.00
9717;BME280;4897;43.570;27.832;2022-11-20T00:23:46;98650.88;;;13.78;100.00
9717;BME280;4897;43.570;27.832;2022-11-20T00:26:15;98694.69;;;14.12;100.00
9717;BME280;4897;43.570;27.832;2022-11-20T00:28:43;98692.81;;;14.12;100.00
9717;BME280;4897;43.570;27.832;2022-11-20T00:31:11;98695.38;;;14.14;100.00
9717;BME280;4897;43.570;27.832;2022-11-20T00:33:38;98687.16;;;14.23;100.00
9717;BME280;4897;43.570;27.832;2022-11-20T00:36:07;98657.16;;;13.94;100.00
9717;BME280;4897;43.570;27.832;2022-11-20T00:38:35;98681.94;;;14.22;100.00
9717;BME280;4897;43.570;27.832;2022-11-20T00:41:05;98683.50;;;14.32;100.00
9717;BME280;4897;43.570;27.832;2022-11-20T00:43:33;98694.47;;;14.47;100.00
9717;BME280;4897;43.570;27.832;2022-11-20T00:46:02;98668.56;;;14.46;100.00
9717;BME280;4897;43.570;27.832;2022-11-20T00:48:29;98661.03;;;14.58;100.00
9717;BME280;4897;43.570;27.832;2022-11-20T00:50:56;98642.34;;;14.56;100.00
9717;BME280;4897;43.570;27.832;2022-11-20T00:53:23;98662.88;;;14.97;100.00
9717;BME280;4897;43.570;27.832;2022-11-20T00:55:55;98655.78;;;15.04;100.00
9717;BME280;4897;43.570;27.832;2022-11-20T00:58:24;98671.63;;;14.99;100.00
9717;BME280;4897;43.570;27.832;2022-11-20T01:00:51;98649.03;;;15.25;100.00
9717;BME280;4897;43.570;27.832;2022-11-20T01:03:18;98624.44;;;15.19;100.00
9717;BME280;4897;43.570;27.832;2022-11-20T01:05:45;98628.97;;;15.35;100.00
9717;BME280;4897;43.570;27.832;2022-11-20T01:08:12;98646.06;;;15.58;100.00
9717;BME280;4897;43.570;27.832;2022-11-20T01:10:39;98646.72;;;15.68;100.00
9717;BME280;4897;43.570;27.832;2022-11-20T01:13:06;98648.53;;;15.76;100.00
9717;BME280;4897;43.570;27.832;2022-11-20T01:15:51;98631.03;;;15.72;100.00
9717;BME280;4897;43.570;27.832;2022-11-20T01:18:18;98628.31;;;15.80;100.00
9717;BME280;4897;43.570;27.832;2022-11-20T01:20:45;98616.53;;;15.73;100.00
9717;BME280;4897;43.570;27.832;2022-11-20T01:23:12;98631.63;;;15.90;100.00
9717;BME280;4897;43.570;27.832;2022-11-20T01:25:39;98642.16;;;16.08;100.00
9717;BME280;4897;43.570;27.832;2022-11-20T01:28:06;98641.06;;;16.17;100.00
9717;BME280;4897;43.570;27.832;2022-11-20T01:30:33;98576.19;;;15.87;100.00
9717;BME280;4897;43.570;27.832;2022-11-20T01:33:01;98590.38;;;16.12;100.00
9717;BME280;4897;43.570;27.832;2022-11-20T01:35:28;98628.44;;;16.40;100.00
9717;BME280;4897;43.570;27.832;2022-11-20T01:37:55;98623.75;;;16.64;100.00
9717;BME280;4897;43.570;27.832;2022-11-20T01:40:22;98514.84;;;16.12;100.00
9717;BME280;4897;43.570;27.832;2022-11-20T01:42:55;98610.97;;;16.96;100.00
9717;BME280;4897;43.570;27.832;2022-11-20T01:45:56;98493.72;;;16.38;100.00
9717;BME280;4897;43.570;27.832;2022-11-20T01:48:29;98539.97;;;16.72;100.00
9717;BME280;4897;43.570;27.832;2022-11-20T01:50:57;98615.47;;;17.18;100.00
9717;BME280;4897;43.570;27.832;2022-11-20T01:53:27;98602.63;;;17.20;100.00
9717;BME280;4897;43.570;27.832;2022-11-20T01:55:57;98573.72;;;17.06;100.00
9717;BME280;4897;43.570;27.832;2022-11-20T01:58:28;98598.16;;;17.27;100.00
9717;BME280;4897;43.570;27.832;2022-11-20T02:00:57;98613.63;;;17.33;100.00
9717;BME280;4897;43.570;27.832;2022-11-20T02:03:24;98578.50;;;17.18;100.00
9717;BME280;4897;43.570;27.832;2022-11-20T02:05:56;98585.28;;;17.43;100.00
9717;BME280;4897;43.570;27.832;2022-11-20T02:08:24;98591.16;;;17.47;100.00
9717;BME280;4897;43.570;27.832;2022-11-20T02:10:51;98598.81;;;17.43;100.00
9717;BME280;4897;43.570;27.832;2022-11-20T02:13:18;98590.81;;;17.50;100.00
9717;BME280;4897;43.570;27.832;2022-11-20T02:16:03;98591.09;;;17.55;100.00
9717;BME280;4897;43.570;27.832;2022-11-20T02:18:30;98584.38;;;17.51;100.00
9717;BME280;4897;43.570;27.832;2022-11-20T02:21:03;98579.25;;;17.41;100.00
9717;BME280;4897;43.570;27.832;2022-11-20T02:23:38;98576.47;;;17.49;100.00
9717;BME280;4897;43.570;27.832;2022-11-20T02:26:09;98588.19;;;17.56;100.00
9717;BME280;4897;43.570;27.832;2022-11-20T02:28:38;98597.78;;;17.59;100.00
9717;BME280;4897;43.570;27.832;2022-11-20T02:31:05;98555.84;;;17.34;100.00
9717;BME280;4897;43.570;27.832;2022-11-20T02:33:33;98568.69;;;17.46;100.00
9717;BME280;4897;43.570;27.832;2022-11-20T02:36:00;98554.72;;;17.43;100.00
9717;BME280;4897;43.570;27.832;2022-11-20T02:38:27;98572.69;;;17.65;100.00
9717;BME280;4897;43.570;27.832;2022-11-20T02:40:54;98573.19;;;17.69;100.00
9717;BME280;4897;43.570;27.832;2022-11-20T02:43:22;98572.13;;;17.70;100.00
9717;BME280;4897;43.570;27.832;2022-11-20T02:45:49;98564.22;;;17.68;100.00
9717;BME280;4897;43.570;27.832;2022-11-20T02:48:16;98553.94;;;17.78;100.00
9717;BME280;4897;43.570;27.832;2022-11-20T02:50:43;98568.97;;;17.81;100.00
9717;BME280;4897;43.570;27.832;2022-11-20T02:53:10;98517.09;;;17.56;100.00
9717;BME280;4897;43.570;27.832;2022-11-20T02:55:37;98551.50;;;17.83;100.00
9717;BME280;4897;43.570;27.832;2022-11-20T02:58:04;98504.00;;;17.60;100.00
9717;BME280;4897;43.570;27.832;2022-11-20T03:00:32;98543.66;;;17.88;100.00
9717;BME280;4897;43.570;27.832;2022-11-20T03:02:59;98528.97;;;17.76;100.00
9717;BME280;4897;43.570;27.832;2022-11-20T03:05:26;98498.88;;;17.65;100.00
9717;BME280;4897;43.570;27.832;2022-11-20T03:07:53;98545.13;;;17.91;100.00
9717;BME280;4897;43.570;27.832;2022-11-20T03:10:20;98542.75;;;17.81;100.00
9717;BME280;4897;43.570;27.832;2022-11-20T03:12:47;98540.63;;;17.77;100.00
9717;BME280;4897;43.570;27.832;2022-11-20T03:15:14;98501.59;;;17.65;100.00
9717;BME280;4897;43.570;27.832;2022-11-20T03:17:42;98559.09;;;17.94;100.00
9717;BME280;4897;43.570;27.832;2022-11-20T03:20:10;98565.56;;;17.93;100.00
9717;BME280;4897;43.570;27.832;2022-11-20T03:22:37;98549.78;;;17.97;100.00
9717;BME280;4897;43.570;27.832;2022-11-20T03:25:04;98554.63;;;18.01;100.00
9717;BME280;4897;43.570;27.832;2022-11-20T03:27:33;98464.66;;;17.57;100.00
9717;BME280;4897;43.570;27.832;2022-11-20T03:30:01;98517.16;;;17.84;100.00
9717;BME280;4897;43.570;27.832;2022-11-20T03:32:28;98537.88;;;17.91;100.00
9717;BME280;4897;43.570;27.832;2022-11-20T03:34:56;98523.19;;;17.79;100.00
9717;BME280;4897;43.570;27.832;2022-11-20T03:37:23;98516.59;;;17.88;100.00
9717;BME280;4897;43.570;27.832;2022-11-20T03:39:50;98512.16;;;17.81;100.00
9717;BME280;4897;43.570;27.832;2022-11-20T03:42:17;98532.97;;;18.01;100.00
9717;BME280;4897;43.570;27.832;2022-11-20T03:45:01;98519.19;;;17.96;100.00
9717;BME280;4897;43.570;27.832;2022-11-20T03:47:28;98371.34;;;17.04;100.00
9717;BME280;4897;43.570;27.832;2022-11-20T03:49:56;98510.97;;;18.04;100.00
9717;BME280;4897;43.570;27.832;2022-11-20T03:52:23;98507.34;;;17.97;100.00
9717;BME280;4897;43.570;27.832;2022-11-20T03:54:50;98509.06;;;18.05;100.00
9717;BME280;4897;43.570;27.832;2022-11-20T03:57:17;98504.31;;;18.07;100.00
9717;BME280;4897;43.570;27.832;2022-11-20T03:59:44;98505.16;;;18.07;100.00
9717;BME280;4897;43.570;27.832;2022-11-20T04:02:11;98486.63;;;18.04;100.00
9717;BME280;4897;43.570;27.832;2022-11-20T04:04:38;98477.66;;;18.04;100.00
9717;BME280;4897;43.570;27.832;2022-11-20T04:07:06;98487.44;;;18.05;100.00
9717;BME280;4897;43.570;27.832;2022-11-20T04:09:33;98473.09;;;18.04;100.00
9717;BME280;4897;43.570;27.832;2022-11-20T04:12:00;98463.34;;;17.89;100.00
9717;BME280;4897;43.570;27.832;2022-11-20T04:14:27;98434.03;;;17.71;100.00
9717;BME280;4897;43.570;27.832;2022-11-20T04:16:54;98429.47;;;17.36;100.00
9717;BME280;4897;43.570;27.832;2022-11-20T04:19:21;98477.88;;;17.88;100.00
9717;BME280;4897;43.570;27.832;2022-11-20T04:21:47;98478.28;;;17.85;100.00
9717;BME280;4897;43.570;27.832;2022-11-20T04:24:16;98429.81;;;17.62;100.00
9717;BME280;4897;43.570;27.832;2022-11-20T04:26:43;98472.47;;;17.88;100.00
9717;BME280;4897;43.570;27.832;2022-11-20T04:29:11;98482.84;;;17.84;100.00
9717;BME280;4897;43.570;27.832;2022-11-20T04:31:38;98454.78;;;17.64;100.00
9717;BME280;4897;43.570;27.832;2022-11-20T04:34:06;98374.28;;;17.09;100.00
9717;BME280;4897;43.570;27.832;2022-11-20T04:36:34;98492.59;;;17.79;100.00
9717;BME280;4897;43.570;27.832;2022-11-20T04:39:03;98492.78;;;17.77;100.00
9717;BME280;4897;43.570;27.832;2022-11-20T04:41:34;98482.47;;;17.66;100.00
9717;BME280;4897;43.570;27.832;2022-11-20T04:44:03;98497.28;;;17.70;100.00
9717;BME280;4897;43.570;27.832;2022-11-20T04:46:31;98508.53;;;17.74;100.00
9717;BME280;4897;43.570;27.832;2022-11-20T04:48:59;98502.28;;;17.73;100.00
9717;BME280;4897;43.570;27.832;2022-11-20T04:51:26;98485.53;;;17.63;100.00
9717;BME280;4897;43.570;27.832;2022-11-20T04:53:54;98510.16;;;17.68;100.00
9717;BME280;4897;43.570;27.832;2022-11-20T04:56:21;98483.88;;;17.47;100.00
9717;BME280;4897;43.570;27.832;2022-11-20T04:58:49;98514.91;;;17.66;100.00
9717;BME280;4897;43.570;27.832;2022-11-20T05:01:20;98487.59;;;17.46;100.00
9717;BME280;4897;43.570;27.832;2022-11-20T05:03:48;98516.69;;;17.59;100.00
9717;BME280;4897;43.570;27.832;2022-11-20T05:06:17;98527.69;;;17.58;100.00
9717;BME280;4897;43.570;27.832;2022-11-20T05:08:45;98514.38;;;17.56;100.00
9717;BME280;4897;43.570;27.832;2022-11-20T05:11:14;98505.50;;;17.47;100.00
9717;BME280;4897;43.570;27.832;2022-11-20T05:13:41;98535.34;;;17.54;100.00
9717;BME280;4897;43.570;27.832;2022-11-20T05:16:11;98509.41;;;17.45;100.00
9717;BME280;4897;43.570;27.832;2022-11-20T05:18:38;98523.31;;;17.56;100.00
9717;BME280;4897;43.570;27.832;2022-11-20T05:21:06;98525.00;;;17.58;100.00
9717;BME280;4897;43.570;27.832;2022-11-20T05:23:33;98507.38;;;17.47;100.00
9717;BME280;4897;43.570;27.832;2022-11-20T05:26:01;98517.44;;;17.53;100.00
9717;BME280;4897;43.570;27.832;2022-11-20T05:28:28;98511.91;;;17.46;100.00
9717;BME280;4897;43.570;27.832;2022-11-20T05:30:56;98528.16;;;17.61;100.00
9717;BME280;4897;43.570;27.832;2022-11-20T05:33:24;98533.94;;;17.58;100.00
9717;BME280;4897;43.570;27.832;2022-11-20T05:35:51;98495.63;;;17.40;100.00
9717;BME280;4897;43.570;27.832;2022-11-20T05:38:18;98475.91;;;17.25;100.00
9717;BME280;4897;43.570;27.832;2022-11-20T05:40:45;98495.63;;;17.40;100.00
9717;BME280;4897;43.570;27.832;2022-11-20T05:43:15;98497.75;;;17.44;100.00
9717;BME280;4897;43.570;27.832;2022-11-20T05:45:41;98525.00;;;17.58;100.00
9717;BME280;4897;43.570;27.832;2022-11-20T05:48:08;98460.81;;;17.16;100.00
9717;BME280;4897;43.570;27.832;2022-11-20T05:50:37;98493.19;;;17.45;100.00
9717;BME280;4897;43.570;27.832;2022-11-20T05:53:04;98534.59;;;17.60;100.00
9717;BME280;4897;43.570;27.832;2022-11-20T05:55:30;98538.97;;;17.61;100.00
9717;BME280;4897;43.570;27.832;2022-11-20T05:57:57;98538.41;;;17.66;100.00
9717;BME280;4897;43.570;27.832;2022-11-20T06:00:24;98508.00;;;17.49;100.00
9717;BME280;4897;43.570;27.832;2022-11-20T06:02:51;98532.63;;;17.69;100.00
9717;BME280;4897;43.570;27.832;2022-11-20T06:05:18;98501.41;;;17.37;100.00
9717;BME280;4897;43.570;27.832;2022-11-20T06:07:47;98532.78;;;17.67;100.00
9717;BME280;4897;43.570;27.832;2022-11-20T06:10:14;98464.78;;;17.34;100.00
9717;BME280;4897;43.570;27.832;2022-11-20T06:12:41;98535.56;;;17.74;100.00
9717;BME280;4897;43.570;27.832;2022-11-20T06:15:08;98511.75;;;17.63;100.00
9717;BME280;4897;43.570;27.832;2022-11-20T06:17:35;98536.41;;;17.74;100.00
9717;BME280;4897;43.570;27.832;2022-11-20T06:20:03;98534.38;;;17.76;100.00
9717;BME280;4897;43.570;27.832;2022-11-20T06:22:30;98524.47;;;17.83;100.00
9717;BME280;4897;43.570;27.832;2022-11-20T06:24:58;98527.53;;;17.80;100.00
9717;BME280;4897;43.570;27.832;2022-11-20T06:27:25;98484.00;;;17.54;100.00
9717;BME280;4897;43.570;27.832;2022-11-20T06:29:52;98525.38;;;17.90;100.00
9717;BME280;4897;43.570;27.832;2022-11-20T06:32:18;98526.84;;;17.93;100.00
9717;BME280;4897;43.570;27.832;2022-11-20T06:34:45;98485.38;;;17.65;100.00
9717;BME280;4897;43.570;27.832;2022-11-20T06:37:12;98436.63;;;17.43;100.00
9717;BME280;4897;43.570;27.832;2022-11-20T06:39:39;98524.22;;;17.99;100.00
9717;BME280;4897;43.570;27.832;2022-11-20T06:42:07;98526.03;;;18.13;100.00
9717;BME280;4897;43.570;27.832;2022-11-20T06:44:34;98470.38;;;17.83;100.00
9717;BME280;4897;43.570;27.832;2022-11-20T06:47:01;98531.44;;;18.13;100.00
9717;BME280;4897;43.570;27.832;2022-11-20T06:49:28;98494.97;;;18.09;100.00
9717;BME280;4897;43.570;27.832;2022-11-20T06:51:55;98526.22;;;18.33;100.00
9717;BME280;4897;43.570;27.832;2022-11-20T06:54:22;98523.00;;;18.44;100.00
9717;BME280;4897;43.570;27.832;2022-11-20T06:56:49;98518.69;;;18.50;100.00
9717;BME280;4897;43.570;27.832;2022-11-20T06:59:17;98503.97;;;18.59;100.00
9717;BME280;4897;43.570;27.832;2022-11-20T07:01:44;98505.28;;;18.69;100.00
9717;BME280;4897;43.570;27.832;2022-11-20T07:04:11;98486.69;;;18.60;100.00
9717;BME280;4897;43.570;27.832;2022-11-20T07:06:38;98527.06;;;18.82;100.00
9717;BME280;4897;43.570;27.832;2022-11-20T07:09:05;98490.69;;;18.64;100.00
9717;BME280;4897;43.570;27.832;2022-11-20T07:11:32;98505.44;;;18.89;100.00
9717;BME280;4897;43.570;27.832;2022-11-20T07:13:59;98518.16;;;18.88;100.00
9717;BME280;4897;43.570;27.832;2022-11-20T07:16:27;98513.38;;;18.90;100.00
9717;BME280;4897;43.570;27.832;2022-11-20T07:18:54;98500.63;;;18.84;100.00
9717;BME280;4897;43.570;27.832;2022-11-20T07:21:21;98514.25;;;18.97;100.00
9717;BME280;4897;43.570;27.832;2022-11-20T07:23:47;98518.41;;;18.93;100.00
9717;BME280;4897;43.570;27.832;2022-11-20T07:26:14;98525.56;;;19.07;100.00
9717;BME280;4897;43.570;27.832;2022-11-20T07:28:43;98513.94;;;19.13;100.00
9717;BME280;4897;43.570;27.832;2022-11-20T07:31:11;98495.56;;;19.09;100.00
9717;BME280;4897;43.570;27.832;2022-11-20T07:33:39;98499.41;;;19.21;100.00
9717;BME280;4897;43.570;27.832;2022-11-20T07:36:07;98527.34;;;19.28;100.00
9717;BME280;4897;43.570;27.832;2022-11-20T07:38:34;98494.59;;;19.23;100.00
9717;BME280;4897;43.570;27.832;2022-11-20T07:41:08;98505.44;;;19.23;100.00
9717;BME280;4897;43.570;27.832;2022-11-20T07:43:35;98457.78;;;19.01;100.00
9717;BME280;4897;43.570;27.832;2022-11-20T07:46:02;98512.63;;;19.37;100.00
9717;BME280;4897;43.570;27.832;2022-11-20T07:48:29;98491.97;;;19.36;100.00
9717;BME280;4897;43.570;27.832;2022-11-20T07:50:58;98516.63;;;19.41;100.00
9717;BME280;4897;43.570;27.832;2022-11-20T07:53:24;98496.25;;;19.58;100.00
9717;BME280;4897;43.570;27.832;2022-11-20T07:55:52;98523.81;;;19.68;100.00
9717;BME280;4897;43.570;27.832;2022-11-20T07:58:18;98505.22;;;19.52;100.00
9717;BME280;4897;43.570;27.832;2022-11-20T08:00:46;98445.31;;;19.13;100.00
9717;BME280;4897;43.570;27.832;2022-11-20T08:03:13;98507.88;;;19.46;100.00
9717;BME280;4897;43.570;27.832;2022-11-20T08:05:39;98533.09;;;19.46;100.00
9717;BME280;4897;43.570;27.832;2022-11-20T08:08:08;98520.41;;;19.53;100.00
9717;BME280;4897;43.570;27.832;2022-11-20T08:10:35;98510.19;;;19.55;100.00
9717;BME280;4897;43.570;27.832;2022-11-20T08:13:02;98520.03;;;19.56;100.00
9717;BME280;4897;43.570;27.832;2022-11-20T08:15:49;98531.22;;;19.47;100.00
9717;BME280;4897;43.570;27.832;2022-11-20T08:18:17;98533.13;;;19.53;100.00
9717;BME280;4897;43.570;27.832;2022-11-20T08:20:44;98534.63;;;19.55;100.00
9717;BME280;4897;43.570;27.832;2022-11-20T08:23:12;98530.19;;;19.41;100.00
9717;BME280;4897;43.570;27.832;2022-11-20T08:25:40;98544.47;;;19.63;100.00
9717;BME280;4897;43.570;27.832;2022-11-20T08:28:08;98543.22;;;19.72;100.00
9717;BME280;4897;43.570;27.832;2022-11-20T08:30:36;98542.00;;;19.74;100.00
9717;BME280;4897;43.570;27.832;2022-11-20T08:33:06;98511.91;;;19.69;100.00
9717;BME280;4897;43.570;27.832;2022-11-20T08:35:34;98551.81;;;19.82;100.00
9717;BME280;4897;43.570;27.832;2022-11-20T08:38:01;98504.16;;;19.53;100.00
9717;BME280;4897;43.570;27.832;2022-11-20T08:40:30;98533.81;;;19.61;100.00
9717;BME280;4897;43.570;27.832;2022-11-20T08:42:57;98533.31;;;19.45;100.00
9717;BME280;4897;43.570;27.832;2022-11-20T08:45:27;98514.59;;;19.56;100.00
9717;BME280;4897;43.570;27.832;2022-11-20T08:47:59;98558.28;;;19.74;100.00
9717;BME280;4897;43.570;27.832;2022-11-20T08:50:26;98520.84;;;19.57;100.00
9717;BME280;4897;43.570;27.832;2022-11-20T08:52:52;98528.00;;;19.64;100.00
9717;BME280;4897;43.570;27.832;2022-11-20T08:55:19;98561.81;;;19.68;100.00
9717;BME280;4897;43.570;27.832;2022-11-20T08:57:48;98522.13;;;19.67;100.00
9717;BME280;4897;43.570;27.832;2022-11-20T09:00:16;98530.50;;;19.72;100.00
9717;BME280;4897;43.570;27.832;2022-11-20T09:02:43;98533.47;;;19.77;100.00
9717;BME280;4897;43.570;27.832;2022-11-20T09:05:09;98498.97;;;19.58;100.00
9717;BME280;4897;43.570;27.832;2022-11-20T09:07:36;98474.19;;;19.74;100.00
9717;BME280;4897;43.570;27.832;2022-11-20T09:10:04;98488.97;;;19.72;100.00
9717;BME280;4897;43.570;27.832;2022-11-20T09:12:33;98494.25;;;19.86;100.00
9717;BME280;4897;43.570;27.832;2022-11-20T09:15:01;98475.44;;;19.78;100.00
9717;BME280;4897;43.570;27.832;2022-11-20T09:17:28;98516.00;;;20.00;100.00
9717;BME280;4897;43.570;27.832;2022-11-20T09:19:55;98508.28;;;20.10;100.00
9717;BME280;4897;43.570;27.832;2022-11-20T09:22:22;98473.59;;;19.92;100.00
9717;BME280;4897;43.570;27.832;2022-11-20T09:24:49;98486.38;;;20.05;100.00
9717;BME280;4897;43.570;27.832;2022-11-20T09:27:16;98432.41;;;19.56;100.00
9717;BME280;4897;43.570;27.832;2022-11-20T09:29:46;98495.78;;;20.22;100.00
9717;BME280;4897;43.570;27.832;2022-11-20T09:32:14;98502.28;;;20.21;100.00
9717;BME280;4897;43.570;27.832;2022-11-20T09:34:41;98495.56;;;20.17;100.00
9717;BME280;4897;43.570;27.832;2022-11-20T09:37:08;98508.75;;;20.20;100.00
9717;BME280;4897;43.570;27.832;2022-11-20T09:39:35;98511.84;;;20.17;100.00
9717;BME280;4897;43.570;27.832;2022-11-20T09:42:25;98526.06;;;20.19;100.00
9717;BME280;4897;43.570;27.832;2022-11-20T09:45:10;98491.75;;;19.91;100.00
9717;BME280;4897;43.570;27.832;2022-11-20T09:47:53;98322.28;;;18.94;100.00
9717;BME280;4897;43.570;27.832;2022-11-20T09:50:31;98507.25;;;20.11;100.00
9717;BME280;4897;43.570;27.832;2022-11-20T09:53:12;98532.94;;;20.15;100.00
9717;BME280;4897;43.570;27.832;2022-11-20T09:55:40;98518.91;;;20.11;100.00
9717;BME280;4897;43.570;27.832;2022-11-20T09:58:12;98504.94;;;20.14;100.00
9717;BME280;4897;43.570;27.832;2022-11-20T10:00:39;98527.06;;;20.11;100.00
9717;BME280;4897;43.570;27.832;2022-11-20T10:03:13;98500.34;;;20.02;100.00
9717;BME280;4897;43.570;27.832;2022-11-20T10:05:44;98516.41;;;20.03;100.00
9717;BME280;4897;43.570;27.832;2022-11-20T10:08:17;98503.47;;;19.92;100.00
9717;BME280;4897;43.570;27.832;2022-11-20T10:10:50;98503.69;;;20.10;100.00
9717;BME280;4897;43.570;27.832;2022-11-20T10:13:34;98503.88;;;19.96;100.00
9717;BME280;4897;43.570;27.832;2022-11-20T10:16:14;98523.94;;;20.08;100.00
9717;BME280;4897;43.570;27.832;2022-11-20T10:19:01;98507.66;;;20.08;100.00
9717;BME280;4897;43.570;27.832;2022-11-20T10:21:41;98525.22;;;20.18;100.00
9717;BME280;4897;43.570;27.832;2022-11-20T10:24:37;98516.41;;;20.10;100.00
9717;BME280;4897;43.570;27.832;2022-11-20T10:27:26;98494.91;;;20.02;100.00
9717;BME280;4897;43.570;27.832;2022-11-20T10:30:02;98466.91;;;20.01;100.00
9717;BME280;4897;43.570;27.832;2022-11-20T10:32:33;98466.28;;;19.92;100.00
9717;BME280;4897;43.570;27.832;2022-11-20T10:35:15;98465.66;;;19.90;100.00
9717;BME280;4897;43.570;27.832;2022-11-20T10:37:46;98473.78;;;19.90;100.00
9717;BME280;4897;43.570;27.832;2022-11-20T10:40:22;98495.94;;;20.07;100.00
9717;BME280;4897;43.570;27.832;2022-11-20T10:42:54;98495.53;;;20.04;100.00
9717;BME280;4897;43.570;27.832;2022-11-20T10:45:33;98459.59;;;19.88;100.00
9717;BME280;4897;43.570;27.832;2022-11-20T10:48:11;98489.72;;;20.07;100.00
9717;BME280;4897;43.570;27.832;2022-11-20T10:50:54;98471.53;;;19.94;100.00
9717;BME280;4897;43.570;27.832;2022-11-20T10:53:42;98453.75;;;19.85;100.00
9717;BME280;4897;43.570;27.832;2022-11-20T10:56:17;98478.84;;;20.07;100.00
9717;BME280;4897;43.570;27.832;2022-11-20T10:58:52;98480.19;;;19.63;100.00
9717;BME280;4897;43.570;27.832;2022-11-20T11:01:25;98517.44;;;19.96;100.00
9717;BME280;4897;43.570;27.832;2022-11-20T11:03:53;98467.50;;;19.70;100.00
9717;BME280;4897;43.570;27.832;2022-11-20T11:06:28;98503.84;;;19.89;100.00
9717;BME280;4897;43.570;27.832;2022-11-20T11:09:01;98499.88;;;19.85;100.00
9717;BME280;4897;43.570;27.832;2022-11-20T11:11:32;98502.59;;;19.85;100.00
9717;BME280;4897;43.570;27.832;2022-11-20T11:14:06;98532.84;;;19.75;100.00
9717;BME280;4897;43.570;27.832;2022-11-20T11:16:33;98518.19;;;18.18;100.00
9717;BME280;4897;43.570;27.832;2022-11-20T11:19:04;98550.06;;;17.37;100.00
9717;BME280;4897;43.570;27.832;2022-11-20T11:21:33;98557.03;;;16.50;100.00
9717;BME280;4897;43.570;27.832;2022-11-20T11:24:03;98583.56;;;15.63;100.00
9717;BME280;4897;43.570;27.832;2022-11-20T11:26:30;98584.13;;;14.87;100.00
9717;BME280;4897;43.570;27.832;2022-11-20T11:28:58;98585.84;;;14.48;100.00
9717;BME280;4897;43.570;27.832;2022-11-20T11:31:27;98563.28;;;14.25;100.00
9717;BME280;4897;43.570;27.832;2022-11-20T11:34:04;98559.91;;;14.07;100.00
9717;BME280;4897;43.570;27.832;2022-11-20T11:36:36;98595.03;;;14.13;100.00
9717;BME280;4897;43.570;27.832;2022-11-20T11:39:05;98587.16;;;14.04;100.00
9717;BME280;4897;43.570;27.832;2022-11-20T11:41:33;98616.31;;;13.83;100.00
9717;BME280;4897;43.570;27.832;2022-11-20T11:44:15;98613.53;;;13.58;100.00
9717;BME280;4897;43.570;27.832;2022-11-20T11:47:02;98501.41;;;12.26;100.00
9717;BME280;4897;43.570;27.832;2022-11-20T11:49:30;98626.03;;;13.08;100.00
9717;BME280;4897;43.570;27.832;2022-11-20T11:52:08;98518.91;;;12.38;100.00
9717;BME280;4897;43.570;27.832;2022-11-20T11:54:43;98629.41;;;13.10;100.00
9717;BME280;4897;43.570;27.832;2022-11-20T11:57:16;98554.63;;;12.90;100.00
9717;BME280;4897;43.570;27.832;2022-11-20T11:59:57;98591.03;;;13.51;100.00
9717;BME280;4897;43.570;27.832;2022-11-20T12:02:36;98588.38;;;13.68;100.00
9717;BME280;4897;43.570;27.832;2022-11-20T12:05:13;98618.03;;;14.00;100.00
9717;BME280;4897;43.570;27.832;2022-11-20T12:07:46;98614.81;;;13.88;100.00
9717;BME280;4897;43.570;27.832;2022-11-20T12:10:20;98614.38;;;14.17;100.00
9717;BME280;4897;43.570;27.832;2022-11-20T12:12:51;98604.00;;;14.38;100.00
9717;BME280;4897;43.570;27.832;2022-11-20T12:15:26;98590.72;;;14.28;100.00
9717;BME280;4897;43.570;27.832;2022-11-20T12:17:55;98613.41;;;14.42;100.00
9717;BME280;4897;43.570;27.832;2022-11-20T12:20:26;98594.53;;;14.18;100.00
9717;BME280;4897;43.570;27.832;2022-11-20T12:23:01;98605.53;;;14.40;100.00
9717;BME280;4897;43.570;27.832;2022-11-20T12:25:35;98600.31;;;14.39;100.00
9717;BME280;4897;43.570;27.832;2022-11-20T12:28:25;98564.50;;;14.30;100.00
9717;BME280;4897;43.570;27.832;2022-11-20T12:31:26;98586.66;;;14.65;100.00
9717;BME280;4897;43.570;27.832;2022-11-20T12:34:10;98563.31;;;14.65;100.00
9717;BME280;4897;43.570;27.832;2022-11-20T12:36:44;98593.81;;;15.12;100.00
9717;BME280;4897;43.570;27.832;2022-11-20T12:39:25;98596.34;;;15.22;100.00
9717;BME280;4897;43.570;27.832;2022-11-20T12:42:08;98589.53;;;15.42;100.00
9717;BME280;4897;43.570;27.832;2022-11-20T12:45:10;98588.69;;;15.50;100.00
9717;BME280;4897;43.570;27.832;2022-11-20T12:47:58;98589.41;;;15.74;100.00
9717;BME280;4897;43.570;27.832;2022-11-20T12:50:37;98582.47;;;15.80;100.00
9717;BME280;4897;43.570;27.832;2022-11-20T12:53:14;98569.13;;;15.86;100.00
9717;BME280;4897;43.570;27.832;2022-11-20T12:55:55;98566.56;;;15.93;100.00
9717;BME280;4897;43.570;27.832;2022-11-20T12:58:31;98554.59;;;15.95;100.00
9717;BME280;4897;43.570;27.832;2022-11-20T13:01:09;98568.41;;;16.15;100.00
9717;BME280;4897;43.570;27.832;2022-11-20T13:04:08;98517.00;;;15.94;100.00
9717;BME280;4897;43.570;27.832;2022-11-20T13:06:39;98554.88;;;16.23;100.00
9717;BME280;4897;43.570;27.832;2022-11-20T13:09:09;98563.13;;;16.44;100.00
9717;BME280;4897;43.570;27.832;2022-11-20T13:11:44;98538.47;;;16.33;100.00
9717;BME280;4897;43.570;27.832;2022-11-20T13:14:26;98554.66;;;16.55;100.00
9717;BME280;4897;43.570;27.832;2022-11-20T13:17:00;98568.44;;;16.60;100.00